Uvalda, Georgia
Current Conditions -  °F | °C
As of 3:15 PM on Monday 24 Nov 2014 (Local Time) from KAZE Reporting Station
Thunderstorm Thunderstorm  
Wind Chill: 70°   Ceiling: 8000
Heat Index: 70°   Visibility: 10mi
Dew Point: 69°   Wind: 0mph
Humidity: 96%   Direction: NA
Pressure: 29.84"   Gusts: NA
Location:  32.04°N, 82.51°W
Report Text: KAZE 242015Z AUTO 00000KT 10SM TS OVC080 21/21 A2984 RMK AO2 LTG DSNT SW T02110205
Loading
Personal Weather Stations






























Interactive Weather Map New forecast layout! Learn more

10-Day Weather Forecast

Advertisements
Track Severe Weather on mobile